Terminal Aerodrome Forecast
Issued by NWS South Bend, IN

Home | Current Version | Previous Version | Text Only | Print | Product List | Glossary Off
Versions: 1 2 3 4 5 6 7 8 9 10 11 12 13 14 15 16

000
FTUS43 KIWX 041500 AAA
TAFSBN
TAF AMD
KSBN 041526Z 0415/0512 23012KT P6SM SCT080 OVC200
     FM041900 28012KT P6SM SCT040 BKN100
     FM042300 34008KT 6SM -SHRA BR SCT025 OVC050
     FM050600 08008KT 6SM -SHRA BR OVC035=

USA.gov is the U.S. government's official web portal to all federal, state and local government web resources and services.